Rarden, Ohio
Current Conditions -  °F | °C
As of 5:55 AM on Friday 28 Nov 2014 (Local Time) from KDWU Reporting Station
Overcast Overcast  
Wind Chill: 22°   Ceiling: 4700
Heat Index: 28°   Visibility: 10mi
Dew Point: 16°   Wind: 6mph
Humidity: 59%   Direction: 340°NNW
Pressure: 30.38"   Gusts: NA
Location:  38.92°N, 83.24°W
Report Text: KDWU 281055Z AUTO 34005KT 10SM OVC047 M02/M09 A3038 RMK AO1
Loading
Personal Weather Stations






























Interactive Weather Map New forecast layout! Learn more

10-Day Weather Forecast

Advertisements
Track Severe Weather on mobile